createdAt,value
2023-05-24T00:00:45.164Z,100014.50
2023-05-24T00:06:07.274Z,100028.13
2023-05-24T00:11:14.342Z,100028.90
2023-05-24T00:16:21.435Z,100031.98
2023-05-24T00:21:28.548Z,100046.81
2023-05-24T00:26:35.613Z,100047.15
2023-05-24T00:31:42.740Z,100048.16
2023-05-24T00:36:50.332Z,100045.95
2023-05-24T00:41:57.338Z,100049.42
2023-05-24T00:47:04.391Z,100048.79
2023-05-24T00:52:11.443Z,100053.80
2023-05-24T00:57:19.155Z,100066.83
2023-05-24T01:02:27.028Z,100068.83
2023-05-24T01:07:43.627Z,100068.70
2023-05-24T01:13:00.989Z,100070.84
2023-05-24T01:18:15.649Z,100079.75
2023-05-24T01:23:38.520Z,100086.80
2023-05-24T01:28:46.778Z,100091.98
2023-05-24T01:33:54.852Z,100097.95
2023-05-24T01:39:01.985Z,100100.14
2023-05-24T01:44:17.014Z,100102.11
2023-05-24T01:49:31.537Z,100110.38
2023-05-24T01:54:44.738Z,100120.88
2023-05-24T01:59:53.595Z,100128.26
2023-05-24T02:05:00.626Z,100132.36
2023-05-24T02:10:10.611Z,100140.84
2023-05-24T02:15:17.790Z,100155.45
2023-05-24T02:20:24.851Z,100162.57
2023-05-24T02:25:32.815Z,100172.45
2023-05-24T02:30:40.066Z,100173.98
2023-05-24T02:35:47.300Z,100178.48
2023-05-24T02:40:54.381Z,100181.81
2023-05-24T02:46:01.750Z,100188.25
2023-05-24T02:51:09.107Z,100199.56
2023-05-24T02:56:17.515Z,100197.70
2023-05-24T03:01:24.837Z,100204.55
2023-05-24T03:06:33.085Z,100211.95
2023-05-24T03:11:40.061Z,100220.27
2023-05-24T03:16:47.138Z,100227.38
2023-05-24T03:21:54.502Z,100239.78
2023-05-24T03:27:02.685Z,100233.30
2023-05-24T03:32:09.733Z,100239.02
2023-05-24T03:37:16.921Z,100245.05
2023-05-24T03:42:24.296Z,100242.53
2023-05-24T03:47:33.176Z,100241.02
2023-05-24T03:52:40.463Z,100237.77
2023-05-24T03:57:47.438Z,100231.59
2023-05-24T04:02:56.124Z,100236.37
2023-05-24T04:08:03.806Z,100237.76
2023-05-24T04:13:10.820Z,100247.37
2023-05-24T04:18:18.118Z,100262.11
2023-05-24T04:23:25.085Z,100266.88
2023-05-24T04:28:33.330Z,100273.69
2023-05-24T04:33:40.550Z,100280.84
2023-05-24T04:38:47.751Z,100285.76
2023-05-24T04:43:54.753Z,100293.20
2023-05-24T04:49:02.283Z,100292.96
2023-05-24T04:54:09.853Z,100298.02
2023-05-24T04:59:16.787Z,100296.70
2023-05-24T05:04:23.797Z,100300.02
2023-05-24T05:09:30.845Z,100296.43
2023-05-24T05:14:37.832Z,100304.84
2023-05-24T05:19:44.817Z,100313.55
2023-05-24T05:24:51.710Z,100309.45
2023-05-24T05:29:58.618Z,100315.89
2023-05-24T05:35:06.655Z,100328.77
2023-05-24T05:40:14.809Z,100345.77
2023-05-24T05:45:21.913Z,100351.19
2023-05-24T05:50:28.953Z,100356.98
2023-05-24T05:55:36.209Z,100363.48
2023-05-24T06:00:43.580Z,100363.28
2023-05-24T06:05:50.763Z,100369.86
2023-05-24T06:10:57.895Z,100371.70
2023-05-24T06:16:04.825Z,100374.61
2023-05-24T06:21:14.555Z,100379.27
2023-05-24T06:26:24.636Z,100382.69
2023-05-24T06:31:38.035Z,100388.75
2023-05-24T06:36:47.369Z,100388.50
2023-05-24T06:41:54.260Z,100399.70
2023-05-24T06:47:04.593Z,100408.62
2023-05-24T06:52:11.567Z,100419.58
2023-05-24T06:57:19.153Z,100424.91
2023-05-24T07:02:27.734Z,100433.05
2023-05-24T07:07:34.841Z,100437.34
2023-05-24T07:12:41.766Z,100438.98
2023-05-24T07:17:49.139Z,100445.28
2023-05-24T07:22:56.102Z,100445.02
2023-05-24T07:28:03.260Z,100447.07
2023-05-24T07:33:10.259Z,100450.70
2023-05-24T07:38:17.871Z,100457.30
2023-05-24T07:43:24.779Z,100465.98
2023-05-24T07:48:31.912Z,100469.14
2023-05-24T07:53:39.091Z,100473.13
2023-05-24T07:58:46.961Z,100471.10
2023-05-24T08:03:54.317Z,100475.23
2023-05-24T08:09:01.737Z,100475.02
2023-05-24T08:14:08.756Z,100480.34
2023-05-24T08:19:15.729Z,100483.43
2023-05-24T08:24:22.886Z,100490.16
2023-05-24T08:29:29.843Z,100490.13
2023-05-24T08:34:37.696Z,100495.11
2023-05-24T08:39:44.613Z,100493.84
2023-05-24T08:44:58.776Z,100496.85
2023-05-24T08:50:06.498Z,100503.02
2023-05-24T08:55:14.087Z,100505.11
2023-05-24T09:00:22.841Z,100509.28
2023-05-24T09:05:31.257Z,100511.60
2023-05-24T09:10:53.251Z,100515.17
2023-05-24T09:16:02.522Z,100522.64
2023-05-24T09:21:10.182Z,100525.40
2023-05-24T09:26:18.406Z,100531.48
2023-05-24T09:31:35.316Z,100528.98
2023-05-24T09:36:47.205Z,100537.63
2023-05-24T09:41:57.458Z,100537.39
2023-05-24T09:47:06.303Z,100535.98
2023-05-24T09:52:16.581Z,100528.11
2023-05-24T09:57:24.055Z,100527.44
2023-05-24T10:02:38.488Z,100522.57
2023-05-24T10:07:53.381Z,100534.64
2023-05-24T10:13:01.571Z,100537.13
2023-05-24T10:18:12.149Z,100541.88
2023-05-24T10:23:23.907Z,100543.17
2023-05-24T10:28:31.544Z,100545.55
2023-05-24T10:33:40.295Z,100546.64
2023-05-24T10:38:49.091Z,100547.34
2023-05-24T10:44:09.484Z,100552.85
2023-05-24T10:49:17.131Z,100554.73
2023-05-24T10:54:27.879Z,100558.73
2023-05-24T10:59:37.708Z,100558.78
2023-05-24T11:04:47.745Z,100559.98
2023-05-24T11:10:07.306Z,100555.29
2023-05-24T11:15:25.133Z,100555.46
2023-05-24T11:20:32.233Z,100563.52
2023-05-24T11:25:40.040Z,100562.14
2023-05-24T11:30:48.677Z,100559.48
2023-05-24T11:35:57.161Z,100562.98
2023-05-24T11:41:04.328Z,100569.27
2023-05-24T11:46:11.625Z,100565.94
2023-05-24T11:51:19.793Z,100568.98
2023-05-24T11:56:29.740Z,100571.30
2023-05-24T12:01:38.427Z,100573.67
2023-05-24T12:06:46.258Z,100566.31
2023-05-24T12:11:54.147Z,100573.85
2023-05-24T12:17:01.948Z,100566.87
2023-05-24T12:22:09.870Z,100563.09
2023-05-24T12:27:16.863Z,100563.84
2023-05-24T12:32:23.950Z,100563.38
2023-05-24T12:37:33.755Z,100564.24
2023-05-24T12:42:41.568Z,100566.02
2023-05-24T12:47:48.536Z,100566.98
2023-05-24T12:52:55.842Z,100564.84
2023-05-24T12:58:06.285Z,100567.80
2023-05-24T13:03:13.295Z,100570.43
2023-05-24T13:08:20.292Z,100568.09
2023-05-24T13:13:28.923Z,100571.17
2023-05-24T13:18:35.944Z,100568.45
2023-05-24T13:23:44.542Z,100564.63
2023-05-24T13:29:21.728Z,100566.60
2023-05-24T13:34:18.816Z,100567.50
2023-05-24T13:39:26.568Z,100569.04
2023-05-24T13:44:33.540Z,100574.89
2023-05-24T13:49:41.506Z,100572.96
2023-05-24T13:54:48.772Z,100572.45
2023-05-24T13:59:55.688Z,100579.13
2023-05-24T14:05:21.703Z,100577.99
2023-05-24T14:10:29.978Z,100581.41
2023-05-24T14:15:36.989Z,100572.55
2023-05-24T14:20:44.011Z,100570.17
2023-05-24T14:25:52.107Z,100568.98
2023-05-24T14:30:59.076Z,100575.86
2023-05-24T14:36:06.750Z,100578.08
2023-05-24T14:41:13.708Z,100580.11
2023-05-24T14:46:20.779Z,100582.48
2023-05-24T14:51:27.719Z,100577.74
2023-05-24T14:56:34.812Z,100575.16
2023-05-24T15:01:41.865Z,100580.19
2023-05-24T15:06:48.873Z,100581.57
2023-05-24T15:11:55.807Z,100584.45
2023-05-24T15:17:02.774Z,100587.73
2023-05-24T15:22:10.034Z,100583.42
2023-05-24T15:27:17.592Z,100581.79
2023-05-24T15:32:24.517Z,100577.37
2023-05-24T15:37:31.544Z,100580.84
2023-05-24T15:42:38.555Z,100573.10
2023-05-24T15:47:45.518Z,100566.47
2023-05-24T15:52:52.529Z,100562.34
2023-05-24T15:58:00.865Z,100559.27
2023-05-24T16:03:07.917Z,100559.58
2023-05-24T16:08:16.269Z,100556.73
2023-05-24T16:13:23.315Z,100558.38
2023-05-24T16:18:34.409Z,100561.27
2023-05-24T16:23:41.353Z,100567.19
2023-05-24T16:28:48.252Z,100572.60
2023-05-24T16:33:55.084Z,100574.47
2023-05-24T16:39:02.151Z,100573.64
2023-05-24T16:44:10.524Z,100580.91
2023-05-24T16:49:17.625Z,100585.42
2023-05-24T16:54:24.802Z,100588.73
2023-05-24T16:59:31.745Z,100589.88
2023-05-24T17:04:38.664Z,100602.96
2023-05-24T17:09:46.418Z,100606.50
2023-05-24T17:14:53.805Z,100614.10
2023-05-24T17:20:00.976Z,100614.80
2023-05-24T17:25:09.640Z,100613.36
2023-05-24T17:30:17.097Z,100622.11
2023-05-24T17:35:24.054Z,100629.08
2023-05-24T17:40:31.027Z,100629.85
2023-05-24T17:45:38.150Z,100634.68
2023-05-24T17:50:46.406Z,100638.63
2023-05-24T17:55:53.440Z,100648.23
2023-05-24T18:01:00.546Z,100649.14
2023-05-24T18:06:09.902Z,100656.75
2023-05-24T18:11:17.023Z,100662.20
2023-05-24T18:16:24.188Z,100673.25
2023-05-24T18:21:32.554Z,100680.23
2023-05-24T18:26:39.659Z,100683.39
2023-05-24T18:31:47.578Z,100692.80
2023-05-24T18:36:55.553Z,100696.87
2023-05-24T18:42:02.709Z,100704.17
2023-05-24T18:47:11.045Z,100708.82
2023-05-24T18:52:18.680Z,100714.69
2023-05-24T18:57:26.174Z,100717.45
2023-05-24T19:02:38.318Z,100727.56
2023-05-24T19:07:45.616Z,100727.90
2023-05-24T19:12:52.678Z,100732.19
2023-05-24T19:17:59.901Z,100736.91
2023-05-24T19:23:06.933Z,100733.11
2023-05-24T19:28:14.192Z,100735.08
2023-05-24T19:33:21.332Z,100737.77
2023-05-24T19:38:28.181Z,100737.30
2023-05-24T19:43:35.255Z,100735.71
2023-05-24T19:48:42.436Z,100737.61
2023-05-24T19:53:50.120Z,100740.44
2023-05-24T19:58:57.020Z,100738.16
2023-05-24T20:04:04.078Z,100736.51
2023-05-24T20:09:11.565Z,100737.75
2023-05-24T20:14:19.155Z,100745.77
2023-05-24T20:19:27.231Z,100749.19
2023-05-24T20:24:34.287Z,100751.46
2023-05-24T20:29:41.270Z,100758.23
2023-05-24T20:34:48.147Z,100761.45
2023-05-24T20:39:55.347Z,100767.60
2023-05-24T20:45:02.293Z,100766.98
2023-05-24T20:50:10.888Z,100768.04
2023-05-24T20:55:18.975Z,100772.89
2023-05-24T21:00:26.233Z,100780.79
2023-05-24T21:05:36.432Z,100779.98
2023-05-24T21:10:43.443Z,100784.98
2023-05-24T21:15:50.861Z,100787.41
2023-05-24T21:20:58.069Z,100798.59
2023-05-24T21:26:05.081Z,100802.55
2023-05-24T21:31:12.075Z,100803.30
2023-05-24T21:36:19.426Z,100804.97
2023-05-24T21:41:26.941Z,100814.00
2023-05-24T21:46:34.350Z,100812.48
2023-05-24T21:51:41.311Z,100816.52
2023-05-24T21:56:48.403Z,100822.08
2023-05-24T22:01:55.777Z,100821.09
2023-05-24T22:07:02.921Z,100824.23
2023-05-24T22:12:10.243Z,100828.23
2023-05-24T22:17:17.170Z,100830.00
2023-05-24T22:22:25.250Z,100837.95
2023-05-24T22:27:32.167Z,100847.95
2023-05-24T22:32:39.424Z,100842.41
2023-05-24T22:37:46.659Z,100842.73
2023-05-24T22:42:53.671Z,100838.70
2023-05-24T22:48:00.625Z,100833.31
2023-05-24T22:53:09.317Z,100832.19
2023-05-24T22:58:16.680Z,100836.91
2023-05-24T23:03:23.558Z,100835.08
2023-05-24T23:08:30.434Z,100838.02
2023-05-24T23:13:37.610Z,100838.83
2023-05-24T23:18:44.708Z,100841.92
2023-05-24T23:23:51.726Z,100840.25
2023-05-24T23:28:58.763Z,100838.23
2023-05-24T23:34:05.852Z,100839.34
2023-05-24T23:39:12.888Z,100843.67
2023-05-24T23:44:23.539Z,100843.16
2023-05-24T23:49:30.728Z,100850.88
2023-05-24T23:54:37.632Z,100853.45
2023-05-24T23:59:44.569Z,100854.48
